sensor_id;sensor_type;location;lat;lon;timestamp;pressure;altitude;pressure_sealevel;temperature
49841;BMP280;35738;49.890;5.930;2023-09-08T00:02:03;96161.63;;;23.52
49841;BMP280;35738;49.890;5.930;2023-09-08T00:04:30;96156.16;;;23.25
49841;BMP280;35738;49.890;5.930;2023-09-08T00:06:56;96160.41;;;23.02
49841;BMP280;35738;49.890;5.930;2023-09-08T00:09:23;96159.69;;;23.02
49841;BMP280;35738;49.890;5.930;2023-09-08T00:11:49;96161.66;;;22.97
49841;BMP280;35738;49.890;5.930;2023-09-08T00:14:15;96159.34;;;23.13
49841;BMP280;35738;49.890;5.930;2023-09-08T00:16:42;96166.41;;;23.22
49841;BMP280;35738;49.890;5.930;2023-09-08T00:19:10;96167.50;;;23.39
49841;BMP280;35738;49.890;5.930;2023-09-08T00:21:37;96172.72;;;23.27
49841;BMP280;35738;49.890;5.930;2023-09-08T00:24:06;96161.59;;;22.95
49841;BMP280;35738;49.890;5.930;2023-09-08T00:26:33;96164.41;;;22.97
49841;BMP280;35738;49.890;5.930;2023-09-08T00:29:00;96171.31;;;23.26
49841;BMP280;35738;49.890;5.930;2023-09-08T00:31:26;96166.72;;;23.07
49841;BMP280;35738;49.890;5.930;2023-09-08T00:33:53;96172.22;;;23.07
49841;BMP280;35738;49.890;5.930;2023-09-08T00:36:19;96159.44;;;22.92
49841;BMP280;35738;49.890;5.930;2023-09-08T00:38:46;96156.94;;;23.00
49841;BMP280;35738;49.890;5.930;2023-09-08T00:41:12;96162.22;;;22.66
49841;BMP280;35738;49.890;5.930;2023-09-08T00:43:39;96162.16;;;22.64
49841;BMP280;35738;49.890;5.930;2023-09-08T00:46:06;96159.34;;;22.62
49841;BMP280;35738;49.890;5.930;2023-09-08T00:48:33;96156.34;;;22.78
49841;BMP280;35738;49.890;5.930;2023-09-08T00:51:01;96159.59;;;22.70
49841;BMP280;35738;49.890;5.930;2023-09-08T00:53:27;96163.13;;;22.75
49841;BMP280;35738;49.890;5.930;2023-09-08T00:55:54;96158.75;;;22.91
49841;BMP280;35738;49.890;5.930;2023-09-08T00:58:22;96149.66;;;23.10
49841;BMP280;35738;49.890;5.930;2023-09-08T01:00:48;96157.19;;;22.84
49841;BMP280;35738;49.890;5.930;2023-09-08T01:03:15;96158.47;;;23.07
49841;BMP280;35738;49.890;5.930;2023-09-08T01:05:41;96155.16;;;23.12
49841;BMP280;35738;49.890;5.930;2023-09-08T01:08:10;96163.91;;;23.32
49841;BMP280;35738;49.890;5.930;2023-09-08T01:10:36;96165.06;;;23.53
49841;BMP280;35738;49.890;5.930;2023-09-08T01:13:03;96163.91;;;23.32
49841;BMP280;35738;49.890;5.930;2023-09-08T01:15:30;96155.56;;;23.01
49841;BMP280;35738;49.890;5.930;2023-09-08T01:17:56;96159.50;;;23.21
49841;BMP280;35738;49.890;5.930;2023-09-08T01:20:25;96159.88;;;23.37
49841;BMP280;35738;49.890;5.930;2023-09-08T01:23:22;96151.69;;;23.10
49841;BMP280;35738;49.890;5.930;2023-09-08T01:26:04;96160.56;;;23.08
49841;BMP280;35738;49.890;5.930;2023-09-08T01:28:34;96146.81;;;23.08
49841;BMP280;35738;49.890;5.930;2023-09-08T01:31:01;96153.41;;;23.25
49841;BMP280;35738;49.890;5.930;2023-09-08T01:33:27;96150.66;;;23.52
49841;BMP280;35738;49.890;5.930;2023-09-08T01:35:54;96151.84;;;23.45
49841;BMP280;35738;49.890;5.930;2023-09-08T01:38:21;96153.91;;;23.45
49841;BMP280;35738;49.890;5.930;2023-09-08T01:40:48;96148.34;;;23.13
49841;BMP280;35738;49.890;5.930;2023-09-08T01:43:14;96152.69;;;22.95
49841;BMP280;35738;49.890;5.930;2023-09-08T01:45:41;96150.31;;;23.11
49841;BMP280;35738;49.890;5.930;2023-09-08T01:48:07;96150.53;;;22.91
49841;BMP280;35738;49.890;5.930;2023-09-08T01:50:33;96147.84;;;22.93
49841;BMP280;35738;49.890;5.930;2023-09-08T01:53:00;96143.66;;;22.90
49841;BMP280;35738;49.890;5.930;2023-09-08T01:55:26;96150.16;;;22.52
49841;BMP280;35738;49.890;5.930;2023-09-08T01:57:53;96148.63;;;22.70
49841;BMP280;35738;49.890;5.930;2023-09-08T02:00:19;96138.88;;;22.93
49841;BMP280;35738;49.890;5.930;2023-09-08T02:02:46;96142.63;;;22.78
49841;BMP280;35738;49.890;5.930;2023-09-08T02:05:12;96134.06;;;22.66
49841;BMP280;35738;49.890;5.930;2023-09-08T02:07:39;96146.50;;;22.69
49841;BMP280;35738;49.890;5.930;2023-09-08T02:10:05;96145.09;;;22.68
49841;BMP280;35738;49.890;5.930;2023-09-08T02:12:32;96142.09;;;22.83
49841;BMP280;35738;49.890;5.930;2023-09-08T02:14:58;96140.78;;;22.86
49841;BMP280;35738;49.890;5.930;2023-09-08T02:17:26;96141.06;;;22.71
49841;BMP280;35738;49.890;5.930;2023-09-08T02:19:52;96141.59;;;22.91
49841;BMP280;35738;49.890;5.930;2023-09-08T02:22:19;96135.34;;;22.63
49841;BMP280;35738;49.890;5.930;2023-09-08T02:24:45;96131.63;;;22.78
49841;BMP280;35738;49.890;5.930;2023-09-08T02:27:12;96136.50;;;22.54
49841;BMP280;35738;49.890;5.930;2023-09-08T02:29:38;96135.06;;;22.51
49841;BMP280;35738;49.890;5.930;2023-09-08T02:32:04;96130.63;;;22.65
49841;BMP280;35738;49.890;5.930;2023-09-08T02:34:34;96134.91;;;22.72
49841;BMP280;35738;49.890;5.930;2023-09-08T02:37:03;96131.91;;;22.62
49841;BMP280;35738;49.890;5.930;2023-09-08T02:39:29;96134.66;;;22.62
49841;BMP280;35738;49.890;5.930;2023-09-08T02:41:56;96139.44;;;22.87
49841;BMP280;35738;49.890;5.930;2023-09-08T02:44:22;96129.47;;;22.74
49841;BMP280;35738;49.890;5.930;2023-09-08T02:46:48;96132.44;;;22.82
49841;BMP280;35738;49.890;5.930;2023-09-08T02:49:15;96132.28;;;22.76
49841;BMP280;35738;49.890;5.930;2023-09-08T02:51:41;96134.06;;;22.91
49841;BMP280;35738;49.890;5.930;2023-09-08T02:54:08;96125.81;;;22.66
49841;BMP280;35738;49.890;5.930;2023-09-08T02:56:34;96124.75;;;22.51
49841;BMP280;35738;49.890;5.930;2023-09-08T02:59:01;96128.28;;;22.54
49841;BMP280;35738;49.890;5.930;2023-09-08T03:01:27;96125.88;;;22.68
49841;BMP280;35738;49.890;5.930;2023-09-08T03:03:54;96128.22;;;22.52
49841;BMP280;35738;49.890;5.930;2023-09-08T03:06:20;96129.84;;;22.88
49841;BMP280;35738;49.890;5.930;2023-09-08T03:08:47;96132.03;;;22.66
49841;BMP280;35738;49.890;5.930;2023-09-08T03:11:13;96126.47;;;22.64
49841;BMP280;35738;49.890;5.930;2023-09-08T03:13:40;96128.13;;;22.75
49841;BMP280;35738;49.890;5.930;2023-09-08T03:16:07;96125.03;;;22.61
49841;BMP280;35738;49.890;5.930;2023-09-08T03:18:35;96129.94;;;22.65
49841;BMP280;35738;49.890;5.930;2023-09-08T03:21:04;96119.78;;;22.97
49841;BMP280;35738;49.890;5.930;2023-09-08T03:23:40;96128.53;;;23.19
49841;BMP280;35738;49.890;5.930;2023-09-08T03:26:07;96128.09;;;23.01
49841;BMP280;35738;49.890;5.930;2023-09-08T03:28:34;96120.88;;;23.13
49841;BMP280;35738;49.890;5.930;2023-09-08T03:31:02;96118.97;;;22.92
49841;BMP280;35738;49.890;5.930;2023-09-08T03:33:28;96123.81;;;22.94
49841;BMP280;35738;49.890;5.930;2023-09-08T03:35:55;96122.47;;;22.95
49841;BMP280;35738;49.890;5.930;2023-09-08T03:38:22;96125.47;;;22.77
49841;BMP280;35738;49.890;5.930;2023-09-08T03:40:49;96117.94;;;22.52
49841;BMP280;35738;49.890;5.930;2023-09-08T03:43:15;96113.44;;;22.90
49841;BMP280;35738;49.890;5.930;2023-09-08T03:45:42;96116.31;;;22.43
49841;BMP280;35738;49.890;5.930;2023-09-08T03:48:08;96115.25;;;22.29
49841;BMP280;35738;49.890;5.930;2023-09-08T03:50:35;96116.84;;;22.38
49841;BMP280;35738;49.890;5.930;2023-09-08T03:53:02;96111.78;;;22.28
49841;BMP280;35738;49.890;5.930;2023-09-08T03:55:29;96120.97;;;22.13
49841;BMP280;35738;49.890;5.930;2023-09-08T03:57:55;96119.94;;;22.00
49841;BMP280;35738;49.890;5.930;2023-09-08T04:00:21;96121.69;;;22.13
49841;BMP280;35738;49.890;5.930;2023-09-08T04:02:48;96123.94;;;22.21
49841;BMP280;35738;49.890;5.930;2023-09-08T04:05:18;96117.78;;;22.46
49841;BMP280;35738;49.890;5.930;2023-09-08T04:07:45;96119.59;;;22.38
49841;BMP280;35738;49.890;5.930;2023-09-08T04:10:12;96113.09;;;22.51
49841;BMP280;35738;49.890;5.930;2023-09-08T04:12:41;96116.81;;;23.16
49841;BMP280;35738;49.890;5.930;2023-09-08T04:15:08;96116.31;;;22.43
49841;BMP280;35738;49.890;5.930;2023-09-08T04:17:36;96113.28;;;22.07
49841;BMP280;35738;49.890;5.930;2023-09-08T04:20:04;96119.41;;;22.06
49841;BMP280;35738;49.890;5.930;2023-09-08T04:22:31;96123.88;;;22.19
49841;BMP280;35738;49.890;5.930;2023-09-08T04:24:58;96117.56;;;22.38
49841;BMP280;35738;49.890;5.930;2023-09-08T04:27:25;96109.53;;;22.21
49841;BMP280;35738;49.890;5.930;2023-09-08T04:29:51;96117.00;;;22.69
49841;BMP280;35738;49.890;5.930;2023-09-08T04:32:18;96112.56;;;22.56
49841;BMP280;35738;49.890;5.930;2023-09-08T04:34:44;96116.34;;;22.19
49841;BMP280;35738;49.890;5.930;2023-09-08T04:37:11;96115.91;;;21.80
49841;BMP280;35738;49.890;5.930;2023-09-08T04:39:37;96112.09;;;22.14
49841;BMP280;35738;49.890;5.930;2023-09-08T04:42:04;96110.41;;;22.27
49841;BMP280;35738;49.890;5.930;2023-09-08T04:44:30;96109.97;;;22.37
49841;BMP280;35738;49.890;5.930;2023-09-08T04:46:57;96112.13;;;22.40
49841;BMP280;35738;49.890;5.930;2023-09-08T04:49:23;96114.56;;;22.04
49841;BMP280;35738;49.890;5.930;2023-09-08T04:51:50;96110.28;;;22.23
49841;BMP280;35738;49.890;5.930;2023-09-08T04:54:16;96110.59;;;21.86
49841;BMP280;35738;49.890;5.930;2023-09-08T04:56:43;96113.25;;;22.31
49841;BMP280;35738;49.890;5.930;2023-09-08T04:59:09;96110.66;;;22.11
49841;BMP280;35738;49.890;5.930;2023-09-08T05:01:36;96114.13;;;22.63
49841;BMP280;35738;49.890;5.930;2023-09-08T05:04:03;96116.50;;;22.26
49841;BMP280;35738;49.890;5.930;2023-09-08T05:06:30;96121.72;;;21.92
49841;BMP280;35738;49.890;5.930;2023-09-08T05:08:59;96123.66;;;22.11
49841;BMP280;35738;49.890;5.930;2023-09-08T05:11:26;96130.06;;;22.19
49841;BMP280;35738;49.890;5.930;2023-09-08T05:13:53;96129.75;;;21.84
49841;BMP280;35738;49.890;5.930;2023-09-08T05:16:20;96124.88;;;22.06
49841;BMP280;35738;49.890;5.930;2023-09-08T05:19:03;96128.81;;;22.48
49841;BMP280;35738;49.890;5.930;2023-09-08T05:21:34;96130.63;;;22.14
49841;BMP280;35738;49.890;5.930;2023-09-08T05:24:00;96129.69;;;22.31
49841;BMP280;35738;49.890;5.930;2023-09-08T05:26:27;96127.63;;;22.06
49841;BMP280;35738;49.890;5.930;2023-09-08T05:28:53;96132.19;;;21.97
49841;BMP280;35738;49.890;5.930;2023-09-08T05:31:19;96131.50;;;21.75
49841;BMP280;35738;49.890;5.930;2023-09-08T05:33:46;96131.31;;;21.67
49841;BMP280;35738;49.890;5.930;2023-09-08T05:36:12;96137.00;;;21.99
49841;BMP280;35738;49.890;5.930;2023-09-08T05:38:41;96138.25;;;22.69
49841;BMP280;35738;49.890;5.930;2023-09-08T05:41:08;96139.03;;;23.56
49841;BMP280;35738;49.890;5.930;2023-09-08T05:43:34;96146.66;;;23.60
49841;BMP280;35738;49.890;5.930;2023-09-08T05:46:01;96145.97;;;24.24
49841;BMP280;35738;49.890;5.930;2023-09-08T05:48:27;96153.81;;;24.38
49841;BMP280;35738;49.890;5.930;2023-09-08T05:50:54;96154.69;;;24.48
49841;BMP280;35738;49.890;5.930;2023-09-08T05:53:20;96162.34;;;24.52
49841;BMP280;35738;49.890;5.930;2023-09-08T05:55:47;96157.38;;;24.82
49841;BMP280;35738;49.890;5.930;2023-09-08T05:58:13;96160.75;;;24.78
49841;BMP280;35738;49.890;5.930;2023-09-08T06:00:40;96163.31;;;24.31
49841;BMP280;35738;49.890;5.930;2023-09-08T06:03:07;96164.97;;;24.46
49841;BMP280;35738;49.890;5.930;2023-09-08T06:05:34;96156.09;;;24.49
49841;BMP280;35738;49.890;5.930;2023-09-08T06:08:00;96153.69;;;25.09
49841;BMP280;35738;49.890;5.930;2023-09-08T06:10:33;96157.13;;;24.68
49841;BMP280;35738;49.890;5.930;2023-09-08T06:12:59;96157.13;;;25.10
49841;BMP280;35738;49.890;5.930;2023-09-08T06:15:26;96157.09;;;24.66
49841;BMP280;35738;49.890;5.930;2023-09-08T06:17:52;96156.09;;;25.29
49841;BMP280;35738;49.890;5.930;2023-09-08T06:20:19;96156.69;;;25.23
49841;BMP280;35738;49.890;5.930;2023-09-08T06:22:45;96157.81;;;25.52
49841;BMP280;35738;49.890;5.930;2023-09-08T06:25:11;96157.19;;;25.59
49841;BMP280;35738;49.890;5.930;2023-09-08T06:27:38;96151.72;;;26.83
49841;BMP280;35738;49.890;5.930;2023-09-08T06:30:05;96152.94;;;26.61
49841;BMP280;35738;49.890;5.930;2023-09-08T06:32:32;96157.22;;;26.11
49841;BMP280;35738;49.890;5.930;2023-09-08T06:34:59;96153.41;;;26.42
49841;BMP280;35738;49.890;5.930;2023-09-08T06:37:25;96150.31;;;26.80
49841;BMP280;35738;49.890;5.930;2023-09-08T06:39:54;96157.34;;;26.93
49841;BMP280;35738;49.890;5.930;2023-09-08T06:42:20;96157.22;;;26.13
49841;BMP280;35738;49.890;5.930;2023-09-08T06:44:47;96143.03;;;25.83
49841;BMP280;35738;49.890;5.930;2023-09-08T06:47:13;96145.94;;;25.43
49841;BMP280;35738;49.890;5.930;2023-09-08T06:49:40;96150.75;;;25.41
49841;BMP280;35738;49.890;5.930;2023-09-08T06:52:07;96156.84;;;25.83
49841;BMP280;35738;49.890;5.930;2023-09-08T06:54:34;96159.91;;;26.05
49841;BMP280;35738;49.890;5.930;2023-09-08T06:57:00;96155.81;;;26.76
49841;BMP280;35738;49.890;5.930;2023-09-08T06:59:26;96153.00;;;26.06
49841;BMP280;35738;49.890;5.930;2023-09-08T07:01:53;96159.19;;;26.04
49841;BMP280;35738;49.890;5.930;2023-09-08T07:04:20;96155.81;;;26.10
49841;BMP280;35738;49.890;5.930;2023-09-08T07:06:46;96168.66;;;25.89
49841;BMP280;35738;49.890;5.930;2023-09-08T07:09:13;96161.06;;;25.88
49841;BMP280;35738;49.890;5.930;2023-09-08T07:11:39;96166.19;;;26.13
49841;BMP280;35738;49.890;5.930;2023-09-08T07:14:06;96166.28;;;26.19
49841;BMP280;35738;49.890;5.930;2023-09-08T07:16:32;96160.06;;;26.89
49841;BMP280;35738;49.890;5.930;2023-09-08T07:18:58;96165.44;;;26.07
49841;BMP280;35738;49.890;5.930;2023-09-08T07:21:27;96159.69;;;26.46
49841;BMP280;35738;49.890;5.930;2023-09-08T07:23:53;96159.78;;;26.54
49841;BMP280;35738;49.890;5.930;2023-09-08T07:26:23;96172.75;;;25.84
49841;BMP280;35738;49.890;5.930;2023-09-08T07:28:49;96165.38;;;26.66
49841;BMP280;35738;49.890;5.930;2023-09-08T07:31:15;96172.44;;;26.16
49841;BMP280;35738;49.890;5.930;2023-09-08T07:33:42;96163.88;;;26.55
49841;BMP280;35738;49.890;5.930;2023-09-08T07:36:08;96165.94;;;26.51
49841;BMP280;35738;49.890;5.930;2023-09-08T07:38:35;96171.72;;;26.11
49841;BMP280;35738;49.890;5.930;2023-09-08T07:41:03;96172.91;;;26.58
49841;BMP280;35738;49.890;5.930;2023-09-08T07:43:30;96167.03;;;26.96
49841;BMP280;35738;49.890;5.930;2023-09-08T07:45:56;96177.53;;;26.39
49841;BMP280;35738;49.890;5.930;2023-09-08T07:48:23;96165.16;;;26.42
49841;BMP280;35738;49.890;5.930;2023-09-08T07:50:49;96170.16;;;26.58
49841;BMP280;35738;49.890;5.930;2023-09-08T07:53:16;96164.63;;;26.58
49841;BMP280;35738;49.890;5.930;2023-09-08T07:55:42;96171.25;;;25.77
49841;BMP280;35738;49.890;5.930;2023-09-08T07:58:09;96163.53;;;26.89
49841;BMP280;35738;49.890;5.930;2023-09-08T08:00:36;96163.28;;;26.65
49841;BMP280;35738;49.890;5.930;2023-09-08T08:03:02;96170.91;;;26.64
49841;BMP280;35738;49.890;5.930;2023-09-08T08:05:29;96175.28;;;26.90
49841;BMP280;35738;49.890;5.930;2023-09-08T08:07:56;96170.88;;;26.60
49841;BMP280;35738;49.890;5.930;2023-09-08T08:10:22;96167.97;;;26.48
49841;BMP280;35738;49.890;5.930;2023-09-08T08:12:49;96180.41;;;26.49
49841;BMP280;35738;49.890;5.930;2023-09-08T08:15:15;96178.47;;;26.62
49841;BMP280;35738;49.890;5.930;2023-09-08T08:17:42;96172.22;;;26.59
49841;BMP280;35738;49.890;5.930;2023-09-08T08:20:10;96181.28;;;27.54
49841;BMP280;35738;49.890;5.930;2023-09-08T08:22:46;96172.56;;;26.94
49841;BMP280;35738;49.890;5.930;2023-09-08T08:25:13;96182.84;;;26.87
49841;BMP280;35738;49.890;5.930;2023-09-08T08:27:40;96174.59;;;27.93
49841;BMP280;35738;49.890;5.930;2023-09-08T08:30:07;96178.63;;;27.70
49841;BMP280;35738;49.890;5.930;2023-09-08T08:32:34;96183.03;;;27.07
49841;BMP280;35738;49.890;5.930;2023-09-08T08:35:01;96183.06;;;28.45
49841;BMP280;35738;49.890;5.930;2023-09-08T08:37:27;96184.28;;;27.96
49841;BMP280;35738;49.890;5.930;2023-09-08T08:39:54;96186.81;;;27.52
49841;BMP280;35738;49.890;5.930;2023-09-08T08:42:20;96193.16;;;27.74
49841;BMP280;35738;49.890;5.930;2023-09-08T08:44:49;96186.56;;;27.16
49841;BMP280;35738;49.890;5.930;2023-09-08T08:47:16;96182.44;;;27.15
49841;BMP280;35738;49.890;5.930;2023-09-08T08:49:44;96184.94;;;27.92
49841;BMP280;35738;49.890;5.930;2023-09-08T08:52:14;96180.47;;;27.35
49841;BMP280;35738;49.890;5.930;2023-09-08T08:54:41;96177.09;;;27.45
49841;BMP280;35738;49.890;5.930;2023-09-08T08:57:08;96182.44;;;27.21
49841;BMP280;35738;49.890;5.930;2023-09-08T08:59:35;96175.78;;;27.56
49841;BMP280;35738;49.890;5.930;2023-09-08T09:02:03;96182.00;;;27.58
49841;BMP280;35738;49.890;5.930;2023-09-08T09:04:30;96181.84;;;27.32
49841;BMP280;35738;49.890;5.930;2023-09-08T09:06:57;96170.59;;;28.38
49841;BMP280;35738;49.890;5.930;2023-09-08T09:09:24;96180.00;;;27.67
49841;BMP280;35738;49.890;5.930;2023-09-08T09:11:51;96178.63;;;27.76
49841;BMP280;35738;49.890;5.930;2023-09-08T09:14:18;96181.97;;;27.48
49841;BMP280;35738;49.890;5.930;2023-09-08T09:16:45;96176.56;;;27.76
49841;BMP280;35738;49.890;5.930;2023-09-08T09:19:21;96183.97;;;27.42
49841;BMP280;35738;49.890;5.930;2023-09-08T09:21:55;96188.31;;;27.67
49841;BMP280;35738;49.890;5.930;2023-09-08T09:24:32;96192.50;;;27.82
49841;BMP280;35738;49.890;5.930;2023-09-08T09:27:00;96194.84;;;28.43
49841;BMP280;35738;49.890;5.930;2023-09-08T09:29:28;96190.00;;;28.52
49841;BMP280;35738;49.890;5.930;2023-09-08T09:32:02;96184.31;;;28.00
49841;BMP280;35738;49.890;5.930;2023-09-08T09:34:29;96184.44;;;28.44
49841;BMP280;35738;49.890;5.930;2023-09-08T09:36:56;96189.38;;;28.86
49841;BMP280;35738;49.890;5.930;2023-09-08T09:39:24;96183.06;;;28.55
49841;BMP280;35738;49.890;5.930;2023-09-08T09:41:56;96189.97;;;28.44
49841;BMP280;35738;49.890;5.930;2023-09-08T09:44:23;96184.50;;;28.74
49841;BMP280;35738;49.890;5.930;2023-09-08T09:46:54;96190.03;;;29.30
49841;BMP280;35738;49.890;5.930;2023-09-08T09:49:20;96181.03;;;29.30
49841;BMP280;35738;49.890;5.930;2023-09-08T09:51:48;96183.78;;;29.32
49841;BMP280;35738;49.890;5.930;2023-09-08T09:54:15;96185.19;;;28.69
49841;BMP280;35738;49.890;5.930;2023-09-08T09:56:43;96187.28;;;29.00
49841;BMP280;35738;49.890;5.930;2023-09-08T09:59:13;96185.88;;;29.29
49841;BMP280;35738;49.890;5.930;2023-09-08T10:01:41;96191.34;;;29.63
49841;BMP280;35738;49.890;5.930;2023-09-08T10:04:09;96191.44;;;28.97
49841;BMP280;35738;49.890;5.930;2023-09-08T10:06:39;96181.72;;;29.38
49841;BMP280;35738;49.890;5.930;2023-09-08T10:09:06;96185.91;;;29.07
49841;BMP280;35738;49.890;5.930;2023-09-08T10:11:49;96189.19;;;28.05
49841;BMP280;35738;49.890;5.930;2023-09-08T10:14:17;96182.44;;;28.63
49841;BMP280;35738;49.890;5.930;2023-09-08T10:16:45;96177.53;;;29.49
49841;BMP280;35738;49.890;5.930;2023-09-08T10:19:16;96191.13;;;30.25
49841;BMP280;35738;49.890;5.930;2023-09-08T10:21:45;96184.75;;;30.49
49841;BMP280;35738;49.890;5.930;2023-09-08T10:24:20;96184.41;;;29.72
49841;BMP280;35738;49.890;5.930;2023-09-08T10:27:07;96178.94;;;29.30
49841;BMP280;35738;49.890;5.930;2023-09-08T10:29:35;96187.59;;;30.35
49841;BMP280;35738;49.890;5.930;2023-09-08T10:32:02;96184.47;;;29.48
49841;BMP280;35738;49.890;5.930;2023-09-08T10:34:30;96190.44;;;30.17
49841;BMP280;35738;49.890;5.930;2023-09-08T10:36:57;96181.66;;;29.50
49841;BMP280;35738;49.890;5.930;2023-09-08T10:39:31;96182.38;;;29.45
49841;BMP280;35738;49.890;5.930;2023-09-08T10:47:26;96181.72;;;29.20
49841;BMP280;35738;49.890;5.930;2023-09-08T10:49:53;96172.72;;;29.16
49841;BMP280;35738;49.890;5.930;2023-09-08T10:52:26;96184.88;;;30.21
49841;BMP280;35738;49.890;5.930;2023-09-08T10:54:54;96184.88;;;30.21
49841;BMP280;35738;49.890;5.930;2023-09-08T10:57:23;96179.84;;;30.49
49841;BMP280;35738;49.890;5.930;2023-09-08T10:59:54;96178.19;;;29.54
49841;BMP280;35738;49.890;5.930;2023-09-08T11:02:38;96178.84;;;29.74
49841;BMP280;35738;49.890;5.930;2023-09-08T11:05:07;96174.94;;;30.58
49841;BMP280;35738;49.890;5.930;2023-09-08T11:07:36;96181.63;;;29.74
49841;BMP280;35738;49.890;5.930;2023-09-08T11:10:04;96179.31;;;30.25
49841;BMP280;35738;49.890;5.930;2023-09-08T11:12:31;96178.66;;;30.14
49841;BMP280;35738;49.890;5.930;2023-09-08T11:14:58;96179.63;;;29.49
49841;BMP280;35738;49.890;5.930;2023-09-08T11:17:33;96182.34;;;29.65
49841;BMP280;35738;49.890;5.930;2023-09-08T11:20:02;96177.66;;;30.64
49841;BMP280;35738;49.890;5.930;2023-09-08T11:22:36;96179.44;;;31.04
49841;BMP280;35738;49.890;5.930;2023-09-08T11:25:03;96179.38;;;31.08
49841;BMP280;35738;49.890;5.930;2023-09-08T11:27:32;96180.56;;;31.31
49841;BMP280;35738;49.890;5.930;2023-09-08T11:30:00;96175.66;;;31.33
49841;BMP280;35738;49.890;5.930;2023-09-08T11:32:33;96180.03;;;31.14
49841;BMP280;35738;49.890;5.930;2023-09-08T11:35:07;96182.94;;;31.02
49841;BMP280;35738;49.890;5.930;2023-09-08T11:37:39;96179.88;;;31.30
49841;BMP280;35738;49.890;5.930;2023-09-08T11:40:08;96170.72;;;31.40
49841;BMP280;35738;49.890;5.930;2023-09-08T11:42:43;96180.91;;;31.63
49841;BMP280;35738;49.890;5.930;2023-09-08T11:45:15;96171.97;;;31.55
49841;BMP280;35738;49.890;5.930;2023-09-08T11:47:47;96175.56;;;30.66
49841;BMP280;35738;49.890;5.930;2023-09-08T11:50:17;96180.16;;;31.02
49841;BMP280;35738;49.890;5.930;2023-09-08T11:52:47;96176.53;;;31.16
49841;BMP280;35738;49.890;5.930;2023-09-08T11:55:14;96174.84;;;30.72
49841;BMP280;35738;49.890;5.930;2023-09-08T11:57:42;96185.72;;;29.93
49841;BMP280;35738;49.890;5.930;2023-09-08T12:00:10;96174.16;;;30.67
49841;BMP280;35738;49.890;5.930;2023-09-08T12:02:40;96173.91;;;31.02
49841;BMP280;35738;49.890;5.930;2023-09-08T12:05:20;96172.50;;;31.67
49841;BMP280;35738;49.890;5.930;2023-09-08T12:07:49;96176.03;;;31.64
49841;BMP280;35738;49.890;5.930;2023-09-08T12:10:16;96179.06;;;31.40
49841;BMP280;35738;49.890;5.930;2023-09-08T12:12:45;96173.09;;;32.28
49841;BMP280;35738;49.890;5.930;2023-09-08T12:15:39;96171.50;;;31.93
49841;BMP280;35738;49.890;5.930;2023-09-08T12:18:10;96180.31;;;30.84
49841;BMP280;35738;49.890;5.930;2023-09-08T12:20:38;96177.84;;;31.87
49841;BMP280;35738;49.890;5.930;2023-09-08T12:23:06;96167.41;;;32.36
49841;BMP280;35738;49.890;5.930;2023-09-08T12:25:47;96171.47;;;32.41
49841;BMP280;35738;49.890;5.930;2023-09-08T12:28:16;96168.53;;;32.05
49841;BMP280;35738;49.890;5.930;2023-09-08T12:30:43;96169.66;;;32.26
49841;BMP280;35738;49.890;5.930;2023-09-08T12:33:11;96166.59;;;31.95
49841;BMP280;35738;49.890;5.930;2023-09-08T12:35:42;96170.97;;;31.16
49841;BMP280;35738;49.890;5.930;2023-09-08T12:38:09;96163.97;;;32.32
49841;BMP280;35738;49.890;5.930;2023-09-08T12:40:36;96165.84;;;32.90
49841;BMP280;35738;49.890;5.930;2023-09-08T12:43:04;96157.69;;;33.14
49841;BMP280;35738;49.890;5.930;2023-09-08T12:45:50;96162.19;;;32.12
49841;BMP280;35738;49.890;5.930;2023-09-08T12:48:17;96158.81;;;32.04
49841;BMP280;35738;49.890;5.930;2023-09-08T12:50:43;96155.63;;;31.81
49841;BMP280;35738;49.890;5.930;2023-09-08T12:53:09;96159.63;;;31.94
49841;BMP280;35738;49.890;5.930;2023-09-08T12:55:36;96162.38;;;32.47
49841;BMP280;35738;49.890;5.930;2023-09-08T12:58:02;96153.84;;;32.97
49841;BMP280;35738;49.890;5.930;2023-09-08T13:00:29;96146.44;;;31.91
49841;BMP280;35738;49.890;5.930;2023-09-08T13:02:56;96158.41;;;33.15
49841;BMP280;35738;49.890;5.930;2023-09-08T13:05:23;96150.44;;;32.91
49841;BMP280;35738;49.890;5.930;2023-09-08T13:07:49;96151.19;;;32.89
49841;BMP280;35738;49.890;5.930;2023-09-08T13:10:16;96151.66;;;33.38
49841;BMP280;35738;49.890;5.930;2023-09-08T13:12:42;96150.38;;;32.10
49841;BMP280;35738;49.890;5.930;2023-09-08T13:15:09;96155.09;;;31.69
49841;BMP280;35738;49.890;5.930;2023-09-08T13:17:35;96147.19;;;32.36
49841;BMP280;35738;49.890;5.930;2023-09-08T13:20:02;96145.19;;;33.13
49841;BMP280;35738;49.890;5.930;2023-09-08T13:22:29;96145.19;;;33.13
49841;BMP280;35738;49.890;5.930;2023-09-08T13:24:55;96138.94;;;33.11
49841;BMP280;35738;49.890;5.930;2023-09-08T13:27:22;96140.56;;;32.59
49841;BMP280;35738;49.890;5.930;2023-09-08T13:29:48;96142.69;;;33.34
49841;BMP280;35738;49.890;5.930;2023-09-08T13:32:15;96135.19;;;32.88
49841;BMP280;35738;49.890;5.930;2023-09-08T13:34:41;96133.19;;;32.82
49841;BMP280;35738;49.890;5.930;2023-09-08T13:37:10;96129.41;;;33.34
49841;BMP280;35738;49.890;5.930;2023-09-08T13:39:36;96126.97;;;33.53
49841;BMP280;35738;49.890;5.930;2023-09-08T13:42:03;96127.41;;;33.96
49841;BMP280;35738;49.890;5.930;2023-09-08T13:44:30;96124.56;;;32.56
49841;BMP280;35738;49.890;5.930;2023-09-08T13:46:56;96124.88;;;33.53
49841;BMP280;35738;49.890;5.930;2023-09-08T13:49:23;96127.19;;;33.73
49841;BMP280;35738;49.890;5.930;2023-09-08T13:51:52;96121.16;;;33.63
49841;BMP280;35738;49.890;5.930;2023-09-08T13:54:22;96126.66;;;33.67
49841;BMP280;35738;49.890;5.930;2023-09-08T13:57:01;96124.75;;;33.57
49841;BMP280;35738;49.890;5.930;2023-09-08T13:59:33;96119.59;;;33.37
49841;BMP280;35738;49.890;5.930;2023-09-08T14:02:02;96113.53;;;32.90
49841;BMP280;35738;49.890;5.930;2023-09-08T14:04:50;96112.38;;;33.48
49841;BMP280;35738;49.890;5.930;2023-09-08T14:07:21;96107.97;;;33.25
49841;BMP280;35738;49.890;5.930;2023-09-08T14:09:50;96111.50;;;32.87
49841;BMP280;35738;49.890;5.930;2023-09-08T14:12:30;96115.56;;;33.93
49841;BMP280;35738;49.890;5.930;2023-09-08T14:15:01;96113.91;;;33.76
49841;BMP280;35738;49.890;5.930;2023-09-08T14:17:28;96114.19;;;34.23
49841;BMP280;35738;49.890;5.930;2023-09-08T14:19:55;96120.16;;;33.44